Flight Track Log - Related Links

Times and Time Zones

All times are in EDT time to prevent confusion due to time zone crossing. See the SWA2130 flight status page for this flight to view local times or setup timezone preferences in your user account.

Time Position Orientation Groundspeed Altitude Reporting Facility
EDT Latitude Longitude Course Direction KTS MPH feet Rate Location/Type
Sun 09:42:40 PM 33.9400 -118.3500 93° East 172 198 2,400  Level Los Angeles Center
Sun 09:43:42 PM 33.9097 -118.2792 117° Southeast 255 293 5,600 3,290 Climbing Los Angeles Center
Sun 09:44:44 PM 33.8664 -118.2031 124° Southeast 267 307 9,200 3,171 Climbing Los Angeles Center
Sun 09:45:45 PM 33.8156 -118.1114 124° Southeast 321 369 12,100 3,024 Climbing Los Angeles Center
Sun 09:46:47 PM 33.7794 -118.0000 111° Southeast 368 423 15,400 2,516 Climbing Los Angeles Center
Sun 09:47:49 PM 33.7700 -117.8692 95° East 393 452 17,300 2,293 Climbing Los Angeles Center
Sun 09:48:50 PM 33.7581 -117.7239 96° East 431 496 20,100 2,780 Climbing Los Angeles Center
Sun 09:49:52 PM 33.7433 -117.5458 96° East 447 514 23,000 2,448 Climbing Los Angeles Center
Sun 09:50:55 PM 33.7314 -117.3894 95° East 467 537 25,200 2,032 Climbing Los Angeles Center
Sun 09:51:56 PM 33.7186 -117.2311 95° East 479 551 27,200 1,881 Climbing Los Angeles Center
Sun 09:53:09 PM 33.7033 -117.0717 97° East 482 555 29,400 1,911 Climbing Los Angeles Center
Sun 09:54:11 PM 33.6781 -116.8792 99° East 489 563 31,500 2,032 Climbing Los Angeles Center
Sun 09:55:13 PM 33.6553 -116.6983 99° East 490 564 33,600 1,887 Climbing Los Angeles Center
Sun 09:56:15 PM 33.6339 -116.5372 99° East 488 562 35,400 1,500 Climbing Los Angeles Center
Sun 09:57:17 PM 33.6122 -116.3767 99° East 486 559 36,700 1,268 Climbing Los Angeles Center
Sun 09:58:18 PM 33.5906 -116.2172 99° East 483 556 38,000 1,122 Climbing Los Angeles Center
Sun 09:59:20 PM 33.5681 -116.0544 99° East 490 564 39,000 484 Climbing Los Angeles Center
Sun 10:00:22 PM 33.5450 -115.8939 100° East 490 564 39,000  Level Los Angeles Center
Sun 10:01:24 PM 33.5228 -115.7331 99° East 489 563 39,000  Level Los Angeles Center
Sun 10:02:25 PM 33.4956 -115.5422 100° East 484 557 39,000  Level Los Angeles Center
Sun 10:03:27 PM 33.4728 -115.3825 100° East 487 560 39,000  Level Los Angeles Center
Sun 10:04:29 PM 33.4494 -115.2244 100° East 484 557 39,000  Level Los Angeles Center
Sun 10:05:30 PM 33.4261 -115.0664 100° East 483 556 39,000  Level Los Angeles Center
Sun 10:06:32 PM 33.4036 -114.9067 100° East 492 566 39,000  Level Los Angeles Center
Sun 10:07:34 PM 33.3794 -114.7469 100° East 491 565 39,000  Level Los Angeles Center
Sun 10:08:35 PM 33.3567 -114.5881 100° East 490 564 39,000  Level Los Angeles Center
Sun 10:09:19 PM 33.3414 -114.4658 98° East 490 564 39,000  Level Albuquerque Center
Sun 10:10:20 PM 33.3178 -114.3069 100° East 489 563 39,000  Level Albuquerque Center
Sun 10:11:21 PM 33.2922 -114.1478 101° East 488 562 39,000  Level Albuquerque Center
Sun 10:12:22 PM 33.2683 -113.9892 100° East 487 560 39,000  Level Albuquerque Center
Sun 10:13:23 PM 33.2436 -113.8286 100° East 490 564 39,000  Level Albuquerque Center
Sun 10:14:24 PM 33.2131 -113.6392 101° East 486 559 39,000  Level Albuquerque Center
Sun 10:15:25 PM 33.1886 -113.4797 100° East 487 560 39,000  Level Albuquerque Center
Sun 10:16:27 PM 33.1667 -113.3194 99° East 487 560 39,000  Level Albuquerque Center
Sun 10:17:28 PM 33.1447 -113.1592 99° East 488 562 39,000  Level Albuquerque Center
Sun 10:18:29 PM 33.1214 -112.9967 100° East 493 567 39,000  Level Albuquerque Center
Sun 10:19:30 PM 33.1000 -112.8353 99° East 492 566 39,000  Level Albuquerque Center
Sun 10:20:31 PM 33.0775 -112.6733 99° East 492 566 39,000  Level Albuquerque Center
Sun 10:21:33 PM 33.0553 -112.5131 99° East 490 564 39,000  Level Albuquerque Center
Sun 10:22:34 PM 33.0331 -112.3531 99° East 488 562 39,000  Level Albuquerque Center
Sun 10:23:35 PM 33.0094 -112.1731 99° East 491 565 39,000  Level Albuquerque Center
Sun 10:24:36 PM 32.9875 -112.0211 100° East 486 559 39,000  Level Albuquerque Center
Sun 10:25:38 PM 32.9650 -111.8647 100° East 483 556 39,000  Level Albuquerque Center
Sun 10:26:39 PM 32.9419 -111.7078 100° East 484 557 39,000  Level Albuquerque Center
Sun 10:27:40 PM 32.9197 -111.5492 99° East 487 560 39,000  Level Albuquerque Center
Sun 10:28:41 PM 32.8967 -111.3914 100° East 487 560 39,000  Level Albuquerque Center
Sun 10:29:42 PM 32.8731 -111.2317 100° East 492 566 39,000  Level Albuquerque Center
Sun 10:30:43 PM 32.8444 -111.0406 100° East 491 565 39,000  Level Albuquerque Center
Sun 10:31:45 PM 32.8192 -110.8806 101° East 494 568 39,000  Level Albuquerque Center
Sun 10:32:46 PM 32.7958 -110.7208 100° East 494 568 39,000  Level Albuquerque Center
Sun 10:33:47 PM 32.7686 -110.5489 101° East 494 568 39,000  Level Albuquerque Center
Sun 10:34:48 PM 32.7442 -110.3903 100° East 493 567 39,000  Level Albuquerque Center
Sun 10:35:49 PM 32.7325 -110.2275 95° East 501 577 39,000  Level Albuquerque Center
Sun 10:36:50 PM 32.7397 -110.0622 87° East 506 582 39,000  Level Albuquerque Center
Sun 10:37:52 PM 32.7450 -109.8939 88° East 513 590 39,000  Level Albuquerque Center
Sun 10:38:53 PM 32.7544 -109.7278 86° East 510 587 39,000  Level Albuquerque Center
Sun 10:39:54 PM 32.7633 -109.5619 86° East 509 586 39,000  Level Albuquerque Center
Sun 10:40:55 PM 32.7581 -109.3647 92° East 500 575 39,000  Level Albuquerque Center
Sun 10:41:56 PM 32.7169 -109.2122 108° East 494 568 39,000  Level Albuquerque Center
Sun 10:42:57 PM 32.6758 -109.0611 108° East 491 565 39,000  Level Albuquerque Center
Sun 10:43:58 PM 32.6350 -108.9083 108° East 494 568 39,000  Level Albuquerque Center
Sun 10:45:00 PM 32.5933 -108.7564 108° East 495 570 39,000  Level Albuquerque Center
Sun 10:46:01 PM 32.5517 -108.6031 108° East 495 570 39,000 -1,377 Level Albuquerque Center
Sun 10:47:02 PM 32.5014 -108.4214 108° East 491 565 36,200 -2,852 Descending Albuquerque Center
Sun 10:48:03 PM 32.4594 -108.2686 108° East 493 567 33,200 -1,574 Descending Albuquerque Center
Sun 10:49:04 PM 32.4183 -108.1244 109° East 485 558 33,000 -98 Descending Albuquerque Center
Sun 10:50:05 PM 32.3781 -107.9764 108° East 476 548 33,000  Level Albuquerque Center
Sun 10:51:06 PM 32.3386 -107.8194 107° East 494 568 33,000  Level Albuquerque Center
Sun 10:52:07 PM 32.3022 -107.6608 105° East 501 577 33,000 -2,213 Level Albuquerque Center
Sun 10:53:08 PM 32.2633 -107.5019 106° East 503 579 28,500 -4,049 Descending Albuquerque Center
Sun 10:54:10 PM 32.2225 -107.3444 107° East 505 581 24,700 -3,805 Descending Albuquerque Center
Sun 10:55:11 PM 32.1803 -107.1664 106° East 478 550 20,700 -3,470 Descending Albuquerque Center
Sun 10:55:33 PM 32.1661 -107.1169 109° East 455 524 19,900 -2,066 Descending Albuquerque Center
Sun 10:56:12 PM 32.1469 -107.0375 106° East 439 505 18,600 -1,855 Descending Albuquerque Center
Sun 10:56:28 PM 32.1397 -107.0156 111° Southeast 405 466 18,200 -1,672 Descending Albuquerque Center
Sun 10:57:13 PM 32.1167 -106.9197 106° East 394 453 16,900 -1,900 Descending Albuquerque Center
Sun 10:57:28 PM 32.1108 -106.8997 109° East 346 398 16,300 -2,557 Descending Albuquerque Center
Sun 10:58:14 PM 32.0900 -106.8100 105° East 356 410 14,300 -2,690 Descending Albuquerque Center
Sun 10:59:24 PM 32.0553 -106.6831 108° East 340 391 11,100 -1,892 Descending Albuquerque Center
Sun 11:00:24 PM 32.0275 -106.5747 107° East 323 372 10,200 -690 Descending Albuquerque Center
Sun 11:01:17 PM 32.0114 -106.5103 106° East 288 331 9,800 -522 Descending Albuquerque Center
Sun 11:02:19 PM 31.9750 -106.4250 117° Southeast 240 276 9,200 -780 Descending Albuquerque Center
Sun 11:03:20 PM 31.9644 -106.3558 100° East 224 258 8,200 -1,082 Descending Albuquerque Center
Sun 11:04:21 PM 31.9267 -106.3225 143° Southeast 212 244 7,000 -1,038 Descending Albuquerque Center
Sun 11:05:33 PM 31.8756 -106.3597 212° Southwest 214 246 5,900 -836 Descending Albuquerque Center
Sun 11:06:23 PM 31.8661 -106.4214 260° West 227 261 5,300 -595 Descending Albuquerque Center
Sun 11:07:24 PM 31.8225 -106.4453 205° Southwest 170 196 4,800 -492 Descending Albuquerque Center
Sun 11:08:25 PM 31.8039 -106.4144 125° Southeast 138 159 4,300 -439 Descending Albuquerque Center
Sun 11:09:27 PM 31.8017 -106.3736 94° East 130 150 3,900 -387 Descending Albuquerque Center
Sun 11:11:00 PM 31.8000 -106.3667 North  Level FlightAware Approximate
Sun 11:18:00 PM 31.8072 -106.3764 North  Level Estimated
Sun 11:19:00 PM 31.8072 -106.3764 North  Level Estimated
Sun 11:20:00 PM 31.8072 -106.3764 North  Level Estimated
Sun 11:21:00 PM 31.8072 -106.3764 North  Level Estimated

Login

Don't have an account? Register now (free) for customized features, flight alerts, and more!